Time;durP1;ratioP1;P1;durP2;ratioP2;P2;SDS_P1;SDS_P2;PMS_P1;PMS_P2;Temp;Humidity;BMP_temperature;BMP_pressure;BME280_temperature;BME280_humidity;BME280_pressure;Samples;Min_cycle;Max_cycle;Signal;HPM_P1;HPM_P2
2023/10/27 00:00:00;;;;;;;0.10;0.10;;;;;;;;;;5012338;28;20037;-77
2023/10/27 00:02:45;;;;;;;0.10;0.10;;;;;;;;;;5012613;28;20068;-78
2023/10/27 00:05:31;;;;;;;0.10;0.10;;;;;;;;;;5009632;28;20771;-77
2023/10/27 00:08:17;;;;;;;0.10;0.10;;;;;;;;;;5013380;28;20112;-77
2023/10/27 00:11:05;;;;;;;0.10;0.10;;;;;;;;;;5010474;28;20045;-77
2023/10/27 00:13:51;;;;;;;0.20;0.20;;;;;;;;;;5011660;28;20556;-78
2023/10/27 00:16:36;;;;;;;0.20;0.20;;;;;;;;;;5010949;28;20036;-77
2023/10/27 00:19:22;;;;;;;0.20;0.20;;;;;;;;;;5009435;28;20399;-78
2023/10/27 00:22:08;;;;;;;0.10;0.10;;;;;;;;;;5012804;28;20054;-78
2023/10/27 00:24:53;;;;;;;0.20;0.20;;;;;;;;;;5015413;28;20037;-77
2023/10/27 00:27:39;;;;;;;0.10;0.10;;;;;;;;;;5015316;28;20117;-78
2023/10/27 00:30:25;;;;;;;0.20;0.20;;;;;;;;;;5013272;28;20053;-77
2023/10/27 00:33:10;;;;;;;0.10;0.10;;;;;;;;;;5014365;28;20026;-77
2023/10/27 00:35:56;;;;;;;0.10;0.10;;;;;;;;;;5014256;28;20029;-77
2023/10/27 00:38:42;;;;;;;0.10;0.10;;;;;;;;;;5014283;28;20029;-78
2023/10/27 00:41:28;;;;;;;0.10;0.10;;;;;;;;;;5015581;28;20045;-78
2023/10/27 00:44:13;;;;;;;0.10;0.10;;;;;;;;;;5016291;28;20037;-78
2023/10/27 00:46:59;;;;;;;0.10;0.10;;;;;;;;;;5001377;28;20642;-78
2023/10/27 00:49:45;;;;;;;0.10;0.10;;;;;;;;;;5014432;28;20040;-78
2023/10/27 00:52:31;;;;;;;0.20;0.20;;;;;;;;;;5012392;28;20306;-78
2023/10/27 00:55:17;;;;;;;0.10;0.10;;;;;;;;;;4999626;28;20088;-78
2023/10/27 00:58:03;;;;;;;0.25;0.25;;;;;;;;;;5015705;28;20044;-78
2023/10/27 01:00:51;;;;;;;0.10;0.10;;;;;;;;;;5013317;28;20042;-77
2023/10/27 01:03:37;;;;;;;0.10;0.10;;;;;;;;;;4999026;28;20048;-77
2023/10/27 01:06:23;;;;;;;0.10;0.10;;;;;;;;;;5000148;28;20115;-76
2023/10/27 01:09:08;;;;;;;0.10;0.10;;;;;;;;;;5011149;28;20555;-76
2023/10/27 01:11:55;;;;;;;0.10;0.10;;;;;;;;;;5013381;28;20034;-76
2023/10/27 01:14:40;;;;;;;0.10;0.10;;;;;;;;;;5012018;28;20037;-76
2023/10/27 01:17:26;;;;;;;0.17;0.17;;;;;;;;;;5013668;28;20681;-77
2023/10/27 01:20:12;;;;;;;0.10;0.10;;;;;;;;;;5013093;28;20048;-76
2023/10/27 01:23:01;;;;;;;0.10;0.10;;;;;;;;;;5015023;28;20045;-76
2023/10/27 01:25:46;;;;;;;0.20;0.20;;;;;;;;;;4999479;28;20124;-76
2023/10/27 01:28:32;;;;;;;0.13;0.13;;;;;;;;;;4998586;28;20833;-77
2023/10/27 01:31:18;;;;;;;0.20;0.20;;;;;;;;;;5013068;28;20041;-76
2023/10/27 01:34:04;;;;;;;0.20;0.20;;;;;;;;;;5011153;28;20044;-77
2023/10/27 01:36:49;;;;;;;0.43;0.30;;;;;;;;;;5016145;28;20022;-77
2023/10/27 01:39:35;;;;;;;0.55;0.32;;;;;;;;;;5010008;28;20057;-77
2023/10/27 01:42:22;;;;;;;0.63;0.47;;;;;;;;;;5001082;28;20068;-77
2023/10/27 01:45:08;;;;;;;0.60;0.40;;;;;;;;;;5013660;28;20033;-77
2023/10/27 01:47:54;;;;;;;0.35;0.25;;;;;;;;;;4998814;28;20032;-77
2023/10/27 01:50:39;;;;;;;0.40;0.30;;;;;;;;;;4998839;28;20044;-77
2023/10/27 01:53:25;;;;;;;0.30;0.20;;;;;;;;;;5014175;28;20030;-77
2023/10/27 01:56:11;;;;;;;0.20;0.20;;;;;;;;;;4999060;28;20036;-77
2023/10/27 01:58:57;;;;;;;0.13;0.13;;;;;;;;;;4997545;28;20096;-77
2023/10/27 02:01:43;;;;;;;0.13;0.13;;;;;;;;;;5000182;28;20111;-77
2023/10/27 02:04:28;;;;;;;0.20;0.20;;;;;;;;;;4996271;28;20033;-77
2023/10/27 02:07:15;;;;;;;0.10;0.10;;;;;;;;;;5013392;28;20049;-78
2023/10/27 02:10:00;;;;;;;0.20;0.20;;;;;;;;;;5013256;28;20034;-77
2023/10/27 02:12:46;;;;;;;0.20;0.20;;;;;;;;;;5015783;28;20030;-77
2023/10/27 02:15:32;;;;;;;0.10;0.10;;;;;;;;;;4998243;28;20030;-77
2023/10/27 02:18:20;;;;;;;0.10;0.10;;;;;;;;;;4997808;28;20188;-77
2023/10/27 02:21:06;;;;;;;0.10;0.10;;;;;;;;;;5011270;28;20037;-77
2023/10/27 02:23:52;;;;;;;0.20;0.20;;;;;;;;;;5011407;28;20148;-77
2023/10/27 02:26:37;;;;;;;0.10;0.10;;;;;;;;;;4997047;28;20040;-77
2023/10/27 02:29:23;;;;;;;0.10;0.10;;;;;;;;;;4996372;28;20041;-77
2023/10/27 02:32:09;;;;;;;0.10;0.10;;;;;;;;;;4998244;28;20033;-77
2023/10/27 02:34:54;;;;;;;0.20;0.20;;;;;;;;;;4996191;28;20561;-77
2023/10/27 02:37:40;;;;;;;0.10;0.10;;;;;;;;;;5012694;28;20657;-78
2023/10/27 02:40:26;;;;;;;0.10;0.10;;;;;;;;;;5009360;28;20049;-77
2023/10/27 02:43:12;;;;;;;0.20;0.20;;;;;;;;;;5014309;28;20029;-78
2023/10/27 02:46:01;;;;;;;0.20;0.20;;;;;;;;;;5011189;28;20041;-78
2023/10/27 02:48:47;;;;;;;0.10;0.10;;;;;;;;;;5008837;28;20037;-77
2023/10/27 02:51:33;;;;;;;0.10;0.10;;;;;;;;;;5012362;28;20063;-77
2023/10/27 02:54:19;;;;;;;0.20;0.20;;;;;;;;;;5010864;28;20727;-77
2023/10/27 02:57:04;;;;;;;0.10;0.10;;;;;;;;;;5012879;28;20907;-77
2023/10/27 02:59:50;;;;;;;0.20;0.20;;;;;;;;;;5009966;28;20041;-77
2023/10/27 03:02:36;;;;;;;0.10;0.10;;;;;;;;;;5009583;28;20044;-77
2023/10/27 03:05:21;;;;;;;0.10;0.10;;;;;;;;;;5010870;28;20033;-77
2023/10/27 03:08:07;;;;;;;0.20;0.20;;;;;;;;;;5013971;28;20033;-77
2023/10/27 03:10:53;;;;;;;0.10;0.10;;;;;;;;;;4996223;28;20593;-78
2023/10/27 03:13:39;;;;;;;0.10;0.10;;;;;;;;;;4997861;28;20116;-77
2023/10/27 03:16:24;;;;;;;0.13;0.13;;;;;;;;;;4997941;28;20068;-78
2023/10/27 03:19:10;;;;;;;0.10;0.10;;;;;;;;;;5009969;28;20734;-78
2023/10/27 03:21:56;;;;;;;0.20;0.20;;;;;;;;;;5012775;28;20967;-78
2023/10/27 03:24:41;;;;;;;0.10;0.10;;;;;;;;;;4984776;28;20331;-78
2023/10/27 03:27:27;;;;;;;0.10;0.10;;;;;;;;;;4998902;28;20029;-77
2023/10/27 03:30:13;;;;;;;0.10;0.10;;;;;;;;;;5008799;28;20056;-78
2023/10/27 03:32:59;;;;;;;0.10;0.10;;;;;;;;;;5012960;28;20045;-77
2023/10/27 03:35:45;;;;;;;0.13;0.13;;;;;;;;;;5011247;28;20154;-77
2023/10/27 03:38:30;;;;;;;0.10;0.10;;;;;;;;;;4997404;28;20157;-78
2023/10/27 03:41:16;;;;;;;0.10;0.10;;;;;;;;;;4998702;28;20072;-78
2023/10/27 03:44:02;;;;;;;0.10;0.10;;;;;;;;;;5010867;28;20034;-77
2023/10/27 03:46:48;;;;;;;0.10;0.10;;;;;;;;;;4995998;28;20069;-77
2023/10/27 03:49:34;;;;;;;0.10;0.10;;;;;;;;;;5010696;28;20451;-77
2023/10/27 03:52:20;;;;;;;0.10;0.10;;;;;;;;;;5013218;28;20057;-76
2023/10/27 03:55:07;;;;;;;0.15;0.15;;;;;;;;;;5011262;28;20040;-76
2023/10/27 03:57:56;;;;;;;0.10;0.10;;;;;;;;;;5012207;28;20510;-76
2023/10/27 04:00:42;;;;;;;0.10;0.10;;;;;;;;;;5002776;28;20049;-76
2023/10/27 04:03:31;;;;;;;0.10;0.10;;;;;;;;;;5017257;28;20071;-76
2023/10/27 04:06:17;;;;;;;0.25;0.20;;;;;;;;;;5015979;28;20056;-76
2023/10/27 04:09:03;;;;;;;0.20;0.20;;;;;;;;;;5002307;28;20042;-77
2023/10/27 04:11:49;;;;;;;0.20;0.20;;;;;;;;;;5016328;28;20045;-77
2023/10/27 04:14:35;;;;;;;0.20;0.20;;;;;;;;;;5014406;28;20632;-77
2023/10/27 04:17:20;;;;;;;0.20;0.20;;;;;;;;;;5017966;28;20033;-77
2023/10/27 04:20:06;;;;;;;0.10;0.10;;;;;;;;;;5014864;28;20040;-77
2023/10/27 04:22:52;;;;;;;0.30;0.20;;;;;;;;;;5018182;28;20056;-77
2023/10/27 04:25:39;;;;;;;0.10;0.10;;;;;;;;;;5016274;28;20069;-77
2023/10/27 04:28:25;;;;;;;0.13;0.13;;;;;;;;;;5015398;28;20694;-77
2023/10/27 04:31:11;;;;;;;0.20;0.20;;;;;;;;;;5017005;28;20120;-77
2023/10/27 04:33:56;;;;;;;0.20;0.20;;;;;;;;;;5002130;28;20161;-77
2023/10/27 04:36:44;;;;;;;0.10;0.10;;;;;;;;;;5018232;28;20037;-77
2023/10/27 04:39:30;;;;;;;0.10;0.10;;;;;;;;;;5014376;28;20095;-77
2023/10/27 04:42:18;;;;;;;0.20;0.20;;;;;;;;;;5018324;28;20472;-77
2023/10/27 04:45:04;;;;;;;0.10;0.10;;;;;;;;;;5015951;28;20602;-77
2023/10/27 04:47:50;;;;;;;0.10;0.10;;;;;;;;;;5016073;28;20029;-77
2023/10/27 04:50:36;;;;;;;0.20;0.20;;;;;;;;;;5012273;28;20040;-77
2023/10/27 04:53:22;;;;;;;0.10;0.10;;;;;;;;;;5014479;28;20503;-77
2023/10/27 04:56:07;;;;;;;0.10;0.10;;;;;;;;;;5001058;28;20477;-77
2023/10/27 04:58:53;;;;;;;0.10;0.10;;;;;;;;;;5014745;28;20030;-77
2023/10/27 05:01:39;;;;;;;0.10;0.10;;;;;;;;;;5014361;28;20041;-77
2023/10/27 05:04:27;;;;;;;0.10;0.10;;;;;;;;;;5014268;28;20767;-77
2023/10/27 05:07:13;;;;;;;0.20;0.20;;;;;;;;;;5001499;28;20037;-77
2023/10/27 05:09:58;;;;;;;0.10;0.10;;;;;;;;;;5013328;28;20045;-77
2023/10/27 05:12:44;;;;;;;0.10;0.10;;;;;;;;;;5016884;28;20029;-78
2023/10/27 05:15:30;;;;;;;0.20;0.20;;;;;;;;;;5012645;28;20038;-78
2023/10/27 05:18:16;;;;;;;0.10;0.10;;;;;;;;;;5016145;28;20515;-78
2023/10/27 05:21:01;;;;;;;0.13;0.13;;;;;;;;;;5016391;28;20037;-78
2023/10/27 05:23:48;;;;;;;0.20;0.20;;;;;;;;;;5013598;28;20046;-79
2023/10/27 05:26:34;;;;;;;0.10;0.10;;;;;;;;;;5015866;28;20092;-78
2023/10/27 05:29:20;;;;;;;0.10;0.10;;;;;;;;;;5014079;28;20088;-78
2023/10/27 05:32:05;;;;;;;0.20;0.20;;;;;;;;;;5015305;28;20041;-78
2023/10/27 05:34:52;;;;;;;0.10;0.10;;;;;;;;;;5014898;28;20029;-78
2023/10/27 05:37:37;;;;;;;0.10;0.10;;;;;;;;;;5015804;28;20076;-79
2023/10/27 05:40:23;;;;;;;0.20;0.20;;;;;;;;;;5012688;28;20050;-78
2023/10/27 05:43:09;;;;;;;0.20;0.20;;;;;;;;;;5016678;28;20384;-78
2023/10/27 05:45:55;;;;;;;0.10;0.10;;;;;;;;;;5014705;28;20033;-78
2023/10/27 05:48:40;;;;;;;0.10;0.10;;;;;;;;;;5014118;28;20120;-78
2023/10/27 05:51:26;;;;;;;0.10;0.10;;;;;;;;;;5013325;28;20602;-78
2023/10/27 05:54:12;;;;;;;0.10;0.10;;;;;;;;;;5015507;28;20088;-78
2023/10/27 05:56:57;;;;;;;0.10;0.10;;;;;;;;;;5016642;28;20054;-78
2023/10/27 05:59:43;;;;;;;0.10;0.10;;;;;;;;;;5014038;28;20132;-78
2023/10/27 06:02:29;;;;;;;0.20;0.20;;;;;;;;;;5013856;28;20745;-78
2023/10/27 06:05:15;;;;;;;0.10;0.10;;;;;;;;;;5014280;28;20454;-78
2023/10/27 06:08:02;;;;;;;0.10;0.10;;;;;;;;;;5012594;28;20583;-78
2023/10/27 06:10:48;;;;;;;0.10;0.10;;;;;;;;;;5014297;28;20080;-78
2023/10/27 06:13:34;;;;;;;0.10;0.10;;;;;;;;;;5014241;28;20128;-78
2023/10/27 06:16:19;;;;;;;0.17;0.17;;;;;;;;;;5000513;28;20714;-78
2023/10/27 06:19:05;;;;;;;0.10;0.10;;;;;;;;;;5015184;28;20033;-79
2023/10/27 06:21:51;;;;;;;0.10;0.10;;;;;;;;;;5014156;28;20072;-79
2023/10/27 06:24:37;;;;;;;0.20;0.20;;;;;;;;;;5011387;28;20120;-79
2023/10/27 06:27:23;;;;;;;0.20;0.20;;;;;;;;;;5015451;28;20108;-78
2023/10/27 06:30:09;;;;;;;0.20;0.20;;;;;;;;;;5013944;28;20041;-78
2023/10/27 06:32:54;;;;;;;0.10;0.10;;;;;;;;;;5015446;28;20146;-78
2023/10/27 06:35:40;;;;;;;0.10;0.10;;;;;;;;;;5012491;28;20033;-78
2023/10/27 06:38:26;;;;;;;0.20;0.20;;;;;;;;;;5014881;28;20052;-78
2023/10/27 06:41:11;;;;;;;0.20;0.20;;;;;;;;;;5015239;28;20040;-78
2023/10/27 06:43:57;;;;;;;0.10;0.10;;;;;;;;;;5012539;28;20049;-78
2023/10/27 06:46:44;;;;;;;0.10;0.10;;;;;;;;;;5013971;28;20038;-78
2023/10/27 06:49:29;;;;;;;0.20;0.20;;;;;;;;;;5011436;28;20067;-78
2023/10/27 06:52:15;;;;;;;0.10;0.10;;;;;;;;;;5011999;28;20179;-78
2023/10/27 06:55:01;;;;;;;0.20;0.20;;;;;;;;;;5009326;28;20029;-78
2023/10/27 06:57:47;;;;;;;0.10;0.10;;;;;;;;;;4998165;28;20053;-78
2023/10/27 07:00:33;;;;;;;0.20;0.20;;;;;;;;;;5011968;28;20042;-78
2023/10/27 07:03:19;;;;;;;0.17;0.17;;;;;;;;;;5015057;28;20040;-78
2023/10/27 07:06:05;;;;;;;0.10;0.10;;;;;;;;;;5014195;28;20041;-79
2023/10/27 07:08:50;;;;;;;0.20;0.20;;;;;;;;;;5012044;28;20161;-78
2023/10/27 07:11:36;;;;;;;0.10;0.10;;;;;;;;;;5011943;28;20041;-78
2023/10/27 07:14:22;;;;;;;0.10;0.10;;;;;;;;;;5012756;28;20034;-78
2023/10/27 07:17:07;;;;;;;0.10;0.10;;;;;;;;;;5014805;28;20041;-78
2023/10/27 07:19:53;;;;;;;0.10;0.10;;;;;;;;;;5013741;28;20050;-79
2023/10/27 07:22:39;;;;;;;0.20;0.20;;;;;;;;;;5014577;28;20099;-78
2023/10/27 07:25:25;;;;;;;0.10;0.10;;;;;;;;;;5009456;28;20114;-79
2023/10/27 07:28:11;;;;;;;0.10;0.10;;;;;;;;;;5013055;28;20076;-78
2023/10/27 07:30:56;;;;;;;0.10;0.10;;;;;;;;;;5012982;28;20037;-78
2023/10/27 07:33:43;;;;;;;0.10;0.10;;;;;;;;;;5013425;28;20030;-78
2023/10/27 07:36:29;;;;;;;0.13;0.13;;;;;;;;;;5013337;28;20037;-79
2023/10/27 07:39:14;;;;;;;0.20;0.20;;;;;;;;;;4998954;28;20132;-79
2023/10/27 07:42:00;;;;;;;0.20;0.20;;;;;;;;;;5013509;28;20037;-79
2023/10/27 07:44:46;;;;;;;0.17;0.17;;;;;;;;;;4998522;28;20038;-79
2023/10/27 07:47:32;;;;;;;0.20;0.20;;;;;;;;;;4998204;28;20045;-79
2023/10/27 07:50:18;;;;;;;0.10;0.10;;;;;;;;;;5012291;28;20045;-78
2023/10/27 07:53:04;;;;;;;0.15;0.15;;;;;;;;;;5012285;28;20404;-78
2023/10/27 07:55:50;;;;;;;0.10;0.10;;;;;;;;;;5014194;28;20145;-79
2023/10/27 07:58:35;;;;;;;0.10;0.10;;;;;;;;;;5011885;28;20129;-79
2023/10/27 08:01:21;;;;;;;0.20;0.20;;;;;;;;;;5009619;28;20045;-79
2023/10/27 08:04:07;;;;;;;0.10;0.10;;;;;;;;;;5009838;28;20075;-79
2023/10/27 08:06:52;;;;;;;0.10;0.10;;;;;;;;;;5013622;28;20074;-79
2023/10/27 08:09:38;;;;;;;0.20;0.20;;;;;;;;;;5010569;28;20115;-79
2023/10/27 08:12:24;;;;;;;0.20;0.20;;;;;;;;;;5011794;28;20036;-79
2023/10/27 08:15:09;;;;;;;0.20;0.20;;;;;;;;;;5010579;28;20042;-79
2023/10/27 08:17:55;;;;;;;0.10;0.10;;;;;;;;;;5014350;28;20035;-78
2023/10/27 08:20:41;;;;;;;0.10;0.10;;;;;;;;;;5011600;28;20041;-80
2023/10/27 08:23:26;;;;;;;0.20;0.20;;;;;;;;;;5013608;28;20045;-79
2023/10/27 08:26:12;;;;;;;0.10;0.10;;;;;;;;;;5013028;28;20508;-79
2023/10/27 08:28:58;;;;;;;0.10;0.10;;;;;;;;;;5012352;28;20044;-79
2023/10/27 08:31:44;;;;;;;0.10;0.10;;;;;;;;;;5008012;28;20595;-79
2023/10/27 08:34:30;;;;;;;0.10;0.10;;;;;;;;;;5010039;28;20034;-79
2023/10/27 08:37:19;;;;;;;0.10;0.10;;;;;;;;;;5013518;28;20029;-79
2023/10/27 08:40:09;;;;;;;0.10;0.10;;;;;;;;;;5009894;28;20029;-78
2023/10/27 08:42:57;;;;;;;0.10;0.10;;;;;;;;;;4997574;28;20179;-78
2023/10/27 08:45:43;;;;;;;0.10;0.10;;;;;;;;;;5000076;28;20071;-78
2023/10/27 08:48:28;;;;;;;0.10;0.10;;;;;;;;;;5013289;28;20049;-78
2023/10/27 08:51:15;;;;;;;0.10;0.10;;;;;;;;;;5015824;28;20033;-79
2023/10/27 08:54:00;;;;;;;0.10;0.10;;;;;;;;;;5014431;28;20044;-79
2023/10/27 08:56:46;;;;;;;0.10;0.10;;;;;;;;;;5016900;28;20037;-78
2023/10/27 08:59:32;;;;;;;0.20;0.20;;;;;;;;;;5002773;28;20029;-79
2023/10/27 09:02:29;;;;;;;0.20;0.20;;;;;;;;;;5001774;28;20045;-79
2023/10/27 09:05:14;;;;;;;0.10;0.10;;;;;;;;;;5016047;28;20500;-79
2023/10/27 09:08:00;;;;;;;0.10;0.10;;;;;;;;;;5016641;28;20025;-78
2023/10/27 09:10:47;;;;;;;0.15;0.15;;;;;;;;;;5001510;28;20067;-79
2023/10/27 09:13:37;;;;;;;0.20;0.20;;;;;;;;;;5013598;28;20034;-78
2023/10/27 09:16:24;;;;;;;0.10;0.10;;;;;;;;;;5013915;28;20034;-78
2023/10/27 09:19:20;;;;;;;0.20;0.20;;;;;;;;;;5013888;28;20063;-78
2023/10/27 09:22:15;;;;;;;0.20;0.20;;;;;;;;;;5015711;28;20861;-78
2023/10/27 09:25:19;;;;;;;0.20;0.20;;;;;;;;;;5015390;28;20045;-79
2023/10/27 09:28:05;;;;;;;0.20;0.20;;;;;;;;;;5015404;28;20030;-78
2023/10/27 09:30:51;;;;;;;0.10;0.10;;;;;;;;;;4978644;28;20500;-79
2023/10/27 09:33:37;;;;;;;0.20;0.20;;;;;;;;;;4991283;28;20031;-79
2023/10/27 09:36:25;;;;;;;0.20;0.20;;;;;;;;;;4993436;28;20038;-79
2023/10/27 09:39:16;;;;;;;0.20;0.20;;;;;;;;;;4979340;28;20038;-78
2023/10/27 09:42:03;;;;;;;0.23;0.23;;;;;;;;;;4996584;28;20034;-79
2023/10/27 09:45:01;;;;;;;0.10;0.10;;;;;;;;;;4996003;28;20101;-78
2023/10/27 09:47:47;;;;;;;0.20;0.20;;;;;;;;;;4994251;28;20042;-79
2023/10/27 09:50:33;;;;;;;0.10;0.10;;;;;;;;;;4989085;28;20097;-78
2023/10/27 09:53:19;;;;;;;0.10;0.10;;;;;;;;;;4994525;28;20038;-79
2023/10/27 09:56:05;;;;;;;0.10;0.10;;;;;;;;;;4994254;28;20030;-79
2023/10/27 09:58:51;;;;;;;0.20;0.20;;;;;;;;;;4994753;28;20030;-79
2023/10/27 10:01:39;;;;;;;0.10;0.10;;;;;;;;;;4991944;28;20048;-79
2023/10/27 10:04:43;;;;;;;0.10;0.10;;;;;;;;;;4979112;28;20044;-78
2023/10/27 10:07:33;;;;;;;0.15;0.15;;;;;;;;;;4976515;28;20036;-77
2023/10/27 10:10:22;;;;;;;0.10;0.10;;;;;;;;;;4987896;28;20077;-78
2023/10/27 10:13:09;;;;;;;0.10;0.10;;;;;;;;;;4995112;28;20042;-80
2023/10/27 10:15:58;;;;;;;0.10;0.10;;;;;;;;;;4996599;28;20045;-80
2023/10/27 10:18:47;;;;;;;0.20;0.20;;;;;;;;;;4996232;28;20038;-80
2023/10/27 10:21:39;;;;;;;0.10;0.10;;;;;;;;;;4996378;28;20070;-79
2023/10/27 10:24:24;;;;;;;;;;;;;;;;;;4994712;28;20034;-79
2023/10/27 10:27:13;;;;;;;0.10;0.10;;;;;;;;;;4995859;28;20031;-79
2023/10/27 10:30:17;;;;;;;0.13;0.13;;;;;;;;;;4987863;28;20493;-77
2023/10/27 10:33:15;;;;;;;0.10;0.10;;;;;;;;;;4992817;28;20164;-79
2023/10/27 10:36:25;;;;;;;0.10;0.10;;;;;;;;;;4994728;28;20115;-79
2023/10/27 10:39:11;;;;;;;0.10;0.10;;;;;;;;;;4991242;28;20044;-79
2023/10/27 10:42:00;;;;;;;0.20;0.20;;;;;;;;;;4958046;28;20042;-78
2023/10/27 10:44:49;;;;;;;0.20;0.20;;;;;;;;;;4978569;28;20509;-80
2023/10/27 10:47:34;;;;;;;0.10;0.10;;;;;;;;;;4989396;28;20084;-79
2023/10/27 10:50:29;;;;;;;0.10;0.10;;;;;;;;;;4989456;28;20121;-79
2023/10/27 10:53:16;;;;;;;0.10;0.10;;;;;;;;;;4995379;28;20599;-78
2023/10/27 10:56:01;;;;;;;0.10;0.10;;;;;;;;;;4995978;28;20037;-78
2023/10/27 10:58:47;;;;;;;0.20;0.20;;;;;;;;;;4995837;28;20029;-79
2023/10/27 11:01:33;;;;;;;0.20;0.20;;;;;;;;;;4995763;28;20527;-78
2023/10/27 11:04:19;;;;;;;0.20;0.20;;;;;;;;;;4995317;28;20123;-78
2023/10/27 11:07:04;;;;;;;0.17;0.17;;;;;;;;;;4996734;28;20621;-79
2023/10/27 11:09:50;;;;;;;0.20;0.20;;;;;;;;;;4994685;28;20053;-78
2023/10/27 11:12:36;;;;;;;0.10;0.10;;;;;;;;;;4978256;28;20065;-79
2023/10/27 11:15:40;;;;;;;0.10;0.10;;;;;;;;;;4995337;28;20030;-78
2023/10/27 11:18:27;;;;;;;0.10;0.10;;;;;;;;;;4996895;28;20377;-79
2023/10/27 11:21:23;;;;;;;0.10;0.10;;;;;;;;;;4995051;28;20164;-78
2023/10/27 11:24:10;;;;;;;0.10;0.10;;;;;;;;;;4995529;28;20160;-78
2023/10/27 11:26:56;;;;;;;0.10;0.10;;;;;;;;;;4996896;28;20037;-78
2023/10/27 11:29:55;;;;;;;0.10;0.10;;;;;;;;;;4979120;28;20125;-78
2023/10/27 11:32:41;;;;;;;0.10;0.10;;;;;;;;;;4995767;28;20717;-78
2023/10/27 11:35:27;;;;;;;0.10;0.10;;;;;;;;;;4995748;28;20026;-79
2023/10/27 11:38:12;;;;;;;0.15;0.15;;;;;;;;;;4996110;28;20197;-79
2023/10/27 11:41:12;;;;;;;0.20;0.20;;;;;;;;;;4992803;28;20042;-77
2023/10/27 11:43:58;;;;;;;0.10;0.10;;;;;;;;;;4990081;28;21075;-77
2023/10/27 11:46:44;;;;;;;0.20;0.20;;;;;;;;;;4981874;28;20057;-77
2023/10/27 11:49:32;;;;;;;0.20;0.20;;;;;;;;;;4992291;28;20445;-77
2023/10/27 11:52:19;;;;;;;0.10;0.10;;;;;;;;;;4995891;28;20042;-78
2023/10/27 11:55:05;;;;;;;0.20;0.20;;;;;;;;;;4995613;28;20101;-77
2023/10/27 11:57:51;;;;;;;0.20;0.20;;;;;;;;;;4995314;28;20519;-77
2023/10/27 12:00:36;;;;;;;0.30;0.30;;;;;;;;;;4993577;28;20108;-78
2023/10/27 12:03:22;;;;;;;0.20;0.20;;;;;;;;;;4992726;28;20026;-78
2023/10/27 12:06:08;;;;;;;0.10;0.10;;;;;;;;;;4997146;28;20057;-78
2023/10/27 12:08:53;;;;;;;0.10;0.10;;;;;;;;;;4994179;28;20042;-78
2023/10/27 12:11:41;;;;;;;0.20;0.20;;;;;;;;;;4994557;28;20044;-77
2023/10/27 12:14:27;;;;;;;0.13;0.13;;;;;;;;;;4994043;28;20119;-78
2023/10/27 12:17:12;;;;;;;0.20;0.20;;;;;;;;;;4995567;28;20113;-78
2023/10/27 12:19:58;;;;;;;0.20;0.20;;;;;;;;;;4970420;28;20120;-77
2023/10/27 12:22:46;;;;;;;0.30;0.30;;;;;;;;;;4999638;28;20058;-79
2023/10/27 12:25:32;;;;;;;0.20;0.20;;;;;;;;;;4999203;28;20096;-80
2023/10/27 12:28:18;;;;;;;0.20;0.20;;;;;;;;;;5001124;28;20034;-79
2023/10/27 12:31:03;;;;;;;0.10;0.10;;;;;;;;;;4999820;28;20073;-80
2023/10/27 12:33:51;;;;;;;0.10;0.10;;;;;;;;;;4998638;28;20587;-80
2023/10/27 12:36:37;;;;;;;0.20;0.20;;;;;;;;;;5000129;28;20048;-81
2023/10/27 12:39:23;;;;;;;0.20;0.20;;;;;;;;;;4999430;28;20374;-81
2023/10/27 12:42:09;;;;;;;0.20;0.20;;;;;;;;;;4997051;28;20044;-81
2023/10/27 12:44:55;;;;;;;0.10;0.10;;;;;;;;;;4988650;28;20038;-80
2023/10/27 12:47:46;;;;;;;0.15;0.15;;;;;;;;;;4982465;28;20073;-82
2023/10/27 12:50:31;;;;;;;0.10;0.10;;;;;;;;;;4995660;28;20033;-81
2023/10/27 12:53:18;;;;;;;0.17;0.17;;;;;;;;;;4998969;28;20636;-80
2023/10/27 12:56:07;;;;;;;0.10;0.10;;;;;;;;;;4997780;28;20929;-81
2023/10/27 12:58:53;;;;;;;0.20;0.20;;;;;;;;;;4998023;28;20880;-81
2023/10/27 13:01:38;;;;;;;0.10;0.10;;;;;;;;;;4997616;28;20176;-80
2023/10/27 13:04:26;;;;;;;0.10;0.10;;;;;;;;;;4999427;28;20034;-81
2023/10/27 13:07:12;;;;;;;0.10;0.10;;;;;;;;;;4998838;28;20096;-79
2023/10/27 13:09:59;;;;;;;0.10;0.10;;;;;;;;;;4998114;28;20038;-81
2023/10/27 13:12:46;;;;;;;0.15;0.15;;;;;;;;;;5001643;28;20033;-80
2023/10/27 13:15:35;;;;;;;0.10;0.10;;;;;;;;;;4998335;28;20040;-80
2023/10/27 13:18:21;;;;;;;0.10;0.10;;;;;;;;;;4998492;28;20038;-80
2023/10/27 13:21:14;;;;;;;0.15;0.15;;;;;;;;;;5000398;28;20076;-79
2023/10/27 13:24:00;;;;;;;0.10;0.10;;;;;;;;;;4984268;28;20178;-80
2023/10/27 13:26:45;;;;;;;0.10;0.10;;;;;;;;;;4998753;28;20030;-80
2023/10/27 13:29:31;;;;;;;0.10;0.10;;;;;;;;;;4997629;28;20038;-79
2023/10/27 13:32:17;;;;;;;0.10;0.10;;;;;;;;;;4983669;28;20034;-79
2023/10/27 13:35:03;;;;;;;0.10;0.10;;;;;;;;;;5001627;28;20025;-79
2023/10/27 13:37:53;;;;;;;0.10;0.10;;;;;;;;;;5007727;28;20116;-78
2023/10/27 13:40:46;;;;;;;0.10;0.10;;;;;;;;;;5000032;28;20046;-78
2023/10/27 13:43:32;;;;;;;0.10;0.10;;;;;;;;;;5001815;28;20100;-78
2023/10/27 13:46:18;;;;;;;0.10;0.10;;;;;;;;;;4977637;28;20471;-78
2023/10/27 13:49:13;;;;;;;0.10;0.10;;;;;;;;;;4997278;28;20608;-78
2023/10/27 13:51:58;;;;;;;0.10;0.10;;;;;;;;;;5000562;28;20729;-78
2023/10/27 13:54:44;;;;;;;0.10;0.10;;;;;;;;;;5000585;28;20121;-78
2023/10/27 13:57:30;;;;;;;0.10;0.10;;;;;;;;;;5003369;28;20497;-78
2023/10/27 14:00:16;;;;;;;0.10;0.10;;;;;;;;;;5002628;28;20042;-78
2023/10/27 14:03:01;;;;;;;0.10;0.10;;;;;;;;;;5003385;28;20061;-78
2023/10/27 14:05:49;;;;;;;0.10;0.10;;;;;;;;;;4999105;28;20503;-78
2023/10/27 14:08:34;;;;;;;0.10;0.10;;;;;;;;;;4999363;28;20564;-77
2023/10/27 14:11:20;;;;;;;0.10;0.10;;;;;;;;;;4998856;28;20117;-78
2023/10/27 14:14:06;;;;;;;0.10;0.10;;;;;;;;;;5000379;28;20030;-78
2023/10/27 14:16:51;;;;;;;0.10;0.10;;;;;;;;;;5003750;28;20117;-78
2023/10/27 14:19:38;;;;;;;0.10;0.10;;;;;;;;;;4999810;28;20088;-77
2023/10/27 14:22:25;;;;;;;0.10;0.10;;;;;;;;;;5001072;28;20050;-78
2023/10/27 14:25:12;;;;;;;0.10;0.10;;;;;;;;;;5002338;28;20045;-78
2023/10/27 14:27:58;;;;;;;0.10;0.10;;;;;;;;;;5003467;28;20625;-77
2023/10/27 14:30:43;;;;;;;0.10;0.10;;;;;;;;;;4998787;28;20049;-78
2023/10/27 14:33:29;;;;;;;0.20;0.20;;;;;;;;;;5000727;28;20066;-77
2023/10/27 14:36:15;;;;;;;0.10;0.10;;;;;;;;;;4998220;28;20436;-78
2023/10/27 14:39:01;;;;;;;0.20;0.20;;;;;;;;;;4999205;28;20887;-79
2023/10/27 14:41:47;;;;;;;0.10;0.10;;;;;;;;;;5002520;28;20073;-79
2023/10/27 14:44:32;;;;;;;0.20;0.20;;;;;;;;;;4999202;28;20084;-79
2023/10/27 14:47:19;;;;;;;0.20;0.20;;;;;;;;;;4973580;28;20045;-78
2023/10/27 14:50:05;;;;;;;0.10;0.10;;;;;;;;;;4998608;28;20033;-79
2023/10/27 14:52:53;;;;;;;0.10;0.10;;;;;;;;;;4999730;28;20029;-78
2023/10/27 14:55:38;;;;;;;0.10;0.10;;;;;;;;;;5001149;28;20113;-78
2023/10/27 14:58:24;;;;;;;0.10;0.10;;;;;;;;;;5000133;28;20696;-77
2023/10/27 15:01:11;;;;;;;0.10;0.10;;;;;;;;;;4966624;28;20129;-79
2023/10/27 15:03:58;;;;;;;0.20;0.20;;;;;;;;;;4996922;28;20084;-77
2023/10/27 15:06:43;;;;;;;0.17;0.17;;;;;;;;;;4994848;28;20045;-78
2023/10/27 15:09:32;;;;;;;0.10;0.10;;;;;;;;;;4999718;28;20108;-79
2023/10/27 15:12:18;;;;;;;0.10;0.10;;;;;;;;;;5000213;28;20036;-78
2023/10/27 15:15:04;;;;;;;0.10;0.10;;;;;;;;;;4999276;28;20044;-79
2023/10/27 15:17:56;;;;;;;0.20;0.20;;;;;;;;;;4988992;28;20033;-78
2023/10/27 15:20:42;;;;;;;0.10;0.10;;;;;;;;;;5002037;28;20472;-77
2023/10/27 15:23:28;;;;;;;0.10;0.10;;;;;;;;;;5005149;28;20034;-77
2023/10/27 15:26:14;;;;;;;0.10;0.10;;;;;;;;;;4980590;28;20038;-77
2023/10/27 15:28:59;;;;;;;0.20;0.20;;;;;;;;;;4997655;28;20023;-77
2023/10/27 15:31:45;;;;;;;0.10;0.10;;;;;;;;;;5000534;28;20508;-77
2023/10/27 15:34:31;;;;;;;0.10;0.10;;;;;;;;;;4986512;28;20452;-77
2023/10/27 15:37:17;;;;;;;0.10;0.10;;;;;;;;;;5001721;28;20033;-78
2023/10/27 15:40:17;;;;;;;0.10;0.10;;;;;;;;;;5000892;28;20361;-78
2023/10/27 15:43:07;;;;;;;0.10;0.10;;;;;;;;;;5001904;28;20026;-78
2023/10/27 15:45:57;;;;;;;0.10;0.10;;;;;;;;;;4973716;28;20061;-78
2023/10/27 15:48:43;;;;;;;0.10;0.10;;;;;;;;;;4998175;28;20041;-78
2023/10/27 15:51:29;;;;;;;0.17;0.17;;;;;;;;;;5001341;28;20030;-78
2023/10/27 15:54:14;;;;;;;0.10;0.10;;;;;;;;;;4999718;28;20030;-78
2023/10/27 15:57:00;;;;;;;0.10;0.10;;;;;;;;;;5004919;28;20541;-78
2023/10/27 15:59:46;;;;;;;0.10;0.10;;;;;;;;;;4992048;28;20038;-78
2023/10/27 16:02:37;;;;;;;0.10;0.10;;;;;;;;;;5005100;28;20042;-78
2023/10/27 16:05:24;;;;;;;0.10;0.10;;;;;;;;;;5006852;28;20431;-78
2023/10/27 16:08:09;;;;;;;0.10;0.10;;;;;;;;;;5002663;28;20074;-77
2023/10/27 16:10:55;;;;;;;0.10;0.10;;;;;;;;;;5004909;28;20030;-78
2023/10/27 16:13:42;;;;;;;0.10;0.10;;;;;;;;;;5008443;28;20512;-78
2023/10/27 16:16:28;;;;;;;0.17;0.17;;;;;;;;;;5002380;28;20066;-78
2023/10/27 16:19:14;;;;;;;0.10;0.10;;;;;;;;;;5003150;28;20037;-78
2023/10/27 16:21:59;;;;;;;0.10;0.10;;;;;;;;;;5001475;28;20046;-78
2023/10/27 16:24:45;;;;;;;0.10;0.10;;;;;;;;;;4986438;28;20030;-78
2023/10/27 16:27:31;;;;;;;0.20;0.20;;;;;;;;;;4991194;28;20038;-78
2023/10/27 16:30:19;;;;;;;0.10;0.10;;;;;;;;;;4986108;28;20039;-78
2023/10/27 16:33:05;;;;;;;0.10;0.10;;;;;;;;;;4988777;28;20037;-78
2023/10/27 16:35:51;;;;;;;0.10;0.10;;;;;;;;;;4973679;28;20050;-78
2023/10/27 16:38:37;;;;;;;0.10;0.10;;;;;;;;;;4942326;28;20726;-78